sensor_id;sensor_type;location;lat;lon;timestamp;temperature;humidity
516;DHT22;244;48.508;9.052;2022-11-30T00:00:22;8.90;26.10
516;DHT22;244;48.508;9.052;2022-11-30T00:02:48;8.90;26.10
516;DHT22;244;48.508;9.052;2022-11-30T00:05:18;8.90;26.10
516;DHT22;244;48.508;9.052;2022-11-30T00:07:45;8.90;26.10
516;DHT22;244;48.508;9.052;2022-11-30T00:10:12;8.90;26.10
516;DHT22;244;48.508;9.052;2022-11-30T00:12:39;8.90;26.10
516;DHT22;244;48.508;9.052;2022-11-30T00:15:09;8.90;26.10
516;DHT22;244;48.508;9.052;2022-11-30T00:17:38;8.90;26.10
516;DHT22;244;48.508;9.052;2022-11-30T00:20:07;8.90;26.10
516;DHT22;244;48.508;9.052;2022-11-30T00:22:34;8.80;26.00
516;DHT22;244;48.508;9.052;2022-11-30T00:25:02;8.80;26.00
516;DHT22;244;48.508;9.052;2022-11-30T00:27:29;8.80;26.00
516;DHT22;244;48.508;9.052;2022-11-30T00:29:56;8.80;26.00
516;DHT22;244;48.508;9.052;2022-11-30T00:32:25;8.80;26.00
516;DHT22;244;48.508;9.052;2022-11-30T00:34:52;8.80;26.10
516;DHT22;244;48.508;9.052;2022-11-30T00:37:19;8.80;26.10
516;DHT22;244;48.508;9.052;2022-11-30T00:39:46;8.70;26.00
516;DHT22;244;48.508;9.052;2022-11-30T00:42:13;8.80;26.10
516;DHT22;244;48.508;9.052;2022-11-30T00:44:40;8.80;26.10
516;DHT22;244;48.508;9.052;2022-11-30T00:47:08;8.80;26.10
516;DHT22;244;48.508;9.052;2022-11-30T00:49:36;8.80;26.20
516;DHT22;244;48.508;9.052;2022-11-30T00:52:03;8.80;26.20
516;DHT22;244;48.508;9.052;2022-11-30T00:54:31;8.80;26.20
516;DHT22;244;48.508;9.052;2022-11-30T00:56:58;8.80;26.10
516;DHT22;244;48.508;9.052;2022-11-30T00:59:25;8.90;26.10
516;DHT22;244;48.508;9.052;2022-11-30T01:01:52;8.80;26.00
516;DHT22;244;48.508;9.052;2022-11-30T01:04:19;8.80;26.00
516;DHT22;244;48.508;9.052;2022-11-30T01:06:48;8.80;26.00
516;DHT22;244;48.508;9.052;2022-11-30T01:09:15;8.80;26.00
516;DHT22;244;48.508;9.052;2022-11-30T01:11:41;8.80;25.90
516;DHT22;244;48.508;9.052;2022-11-30T01:14:08;8.80;25.90
516;DHT22;244;48.508;9.052;2022-11-30T01:16:36;8.80;25.90
516;DHT22;244;48.508;9.052;2022-11-30T01:19:02;8.80;25.90
516;DHT22;244;48.508;9.052;2022-11-30T01:21:30;8.90;25.90
516;DHT22;244;48.508;9.052;2022-11-30T01:23:58;8.80;25.80
516;DHT22;244;48.508;9.052;2022-11-30T01:26:25;8.80;25.90
516;DHT22;244;48.508;9.052;2022-11-30T01:28:54;8.80;25.90
516;DHT22;244;48.508;9.052;2022-11-30T01:31:22;8.80;25.90
516;DHT22;244;48.508;9.052;2022-11-30T01:33:50;8.80;26.00
516;DHT22;244;48.508;9.052;2022-11-30T01:36:19;8.80;26.00
516;DHT22;244;48.508;9.052;2022-11-30T01:38:48;8.70;25.90
516;DHT22;244;48.508;9.052;2022-11-30T01:41:20;8.70;26.00
516;DHT22;244;48.508;9.052;2022-11-30T01:43:49;8.70;26.00
516;DHT22;244;48.508;9.052;2022-11-30T01:46:26;8.80;26.10
516;DHT22;244;48.508;9.052;2022-11-30T01:48:59;8.70;26.10
516;DHT22;244;48.508;9.052;2022-11-30T01:51:30;8.70;26.60
516;DHT22;244;48.508;9.052;2022-11-30T01:53:59;8.70;26.10
516;DHT22;244;48.508;9.052;2022-11-30T01:56:28;8.70;26.10
516;DHT22;244;48.508;9.052;2022-11-30T01:58:56;8.70;26.20
516;DHT22;244;48.508;9.052;2022-11-30T02:01:24;8.70;26.10
516;DHT22;244;48.508;9.052;2022-11-30T02:03:54;8.70;26.10
516;DHT22;244;48.508;9.052;2022-11-30T02:06:23;8.70;26.10
516;DHT22;244;48.508;9.052;2022-11-30T02:08:52;8.70;26.10
516;DHT22;244;48.508;9.052;2022-11-30T02:11:19;8.70;26.70
516;DHT22;244;48.508;9.052;2022-11-30T02:14:01;8.80;26.20
516;DHT22;244;48.508;9.052;2022-11-30T02:16:37;8.80;26.20
516;DHT22;244;48.508;9.052;2022-11-30T02:19:23;8.70;26.10
516;DHT22;244;48.508;9.052;2022-11-30T02:22:01;8.70;26.10
516;DHT22;244;48.508;9.052;2022-11-30T02:24:40;8.80;26.20
516;DHT22;244;48.508;9.052;2022-11-30T02:27:21;8.80;26.10
516;DHT22;244;48.508;9.052;2022-11-30T02:30:00;8.70;26.00
516;DHT22;244;48.508;9.052;2022-11-30T02:32:33;8.80;26.90
516;DHT22;244;48.508;9.052;2022-11-30T02:35:05;8.90;26.30
516;DHT22;244;48.508;9.052;2022-11-30T02:37:34;8.80;26.10
516;DHT22;244;48.508;9.052;2022-11-30T02:40:06;8.80;26.10
516;DHT22;244;48.508;9.052;2022-11-30T02:42:34;8.80;26.10
516;DHT22;244;48.508;9.052;2022-11-30T02:45:02;8.80;26.00
516;DHT22;244;48.508;9.052;2022-11-30T02:47:36;8.90;26.10
516;DHT22;244;48.508;9.052;2022-11-30T02:50:09;8.90;26.00
516;DHT22;244;48.508;9.052;2022-11-30T02:52:37;8.80;26.00
516;DHT22;244;48.508;9.052;2022-11-30T02:55:07;8.80;25.90
516;DHT22;244;48.508;9.052;2022-11-30T02:57:34;8.80;25.80
516;DHT22;244;48.508;9.052;2022-11-30T03:00:05;8.80;25.80
516;DHT22;244;48.508;9.052;2022-11-30T03:02:34;8.80;25.80
516;DHT22;244;48.508;9.052;2022-11-30T03:05:01;8.80;25.90
516;DHT22;244;48.508;9.052;2022-11-30T03:07:29;8.80;26.00
516;DHT22;244;48.508;9.052;2022-11-30T03:09:56;8.80;26.00
516;DHT22;244;48.508;9.052;2022-11-30T03:12:23;8.80;26.10
516;DHT22;244;48.508;9.052;2022-11-30T03:14:50;8.80;26.20
516;DHT22;244;48.508;9.052;2022-11-30T03:17:18;8.70;26.10
516;DHT22;244;48.508;9.052;2022-11-30T03:19:45;8.70;26.20
516;DHT22;244;48.508;9.052;2022-11-30T03:22:12;8.70;26.10
516;DHT22;244;48.508;9.052;2022-11-30T03:24:39;8.70;26.10
516;DHT22;244;48.508;9.052;2022-11-30T03:27:08;8.70;26.30
516;DHT22;244;48.508;9.052;2022-11-30T03:29:35;8.60;26.30
516;DHT22;244;48.508;9.052;2022-11-30T03:32:05;8.70;26.40
516;DHT22;244;48.508;9.052;2022-11-30T03:34:33;8.60;26.20
516;DHT22;244;48.508;9.052;2022-11-30T03:37:00;8.60;26.40
516;DHT22;244;48.508;9.052;2022-11-30T03:39:27;8.60;26.50
516;DHT22;244;48.508;9.052;2022-11-30T03:41:54;8.60;26.60
516;DHT22;244;48.508;9.052;2022-11-30T03:44:21;8.70;26.70
516;DHT22;244;48.508;9.052;2022-11-30T03:46:48;8.70;26.50
516;DHT22;244;48.508;9.052;2022-11-30T03:49:16;8.70;26.30
516;DHT22;244;48.508;9.052;2022-11-30T03:51:45;8.70;26.30
516;DHT22;244;48.508;9.052;2022-11-30T03:54:11;8.60;26.20
516;DHT22;244;48.508;9.052;2022-11-30T03:56:38;8.60;26.20
516;DHT22;244;48.508;9.052;2022-11-30T03:59:05;8.60;26.10
516;DHT22;244;48.508;9.052;2022-11-30T04:01:32;8.60;26.10
516;DHT22;244;48.508;9.052;2022-11-30T04:04:01;8.60;26.10
516;DHT22;244;48.508;9.052;2022-11-30T04:06:30;8.60;26.10
516;DHT22;244;48.508;9.052;2022-11-30T04:08:59;8.60;26.20
516;DHT22;244;48.508;9.052;2022-11-30T04:11:25;8.50;26.20
516;DHT22;244;48.508;9.052;2022-11-30T04:13:54;8.50;26.20
516;DHT22;244;48.508;9.052;2022-11-30T04:16:21;8.50;26.30
516;DHT22;244;48.508;9.052;2022-11-30T04:18:48;8.50;26.20
516;DHT22;244;48.508;9.052;2022-11-30T04:21:15;8.60;26.30
516;DHT22;244;48.508;9.052;2022-11-30T04:23:44;8.50;26.20
516;DHT22;244;48.508;9.052;2022-11-30T04:26:15;8.50;26.20
516;DHT22;244;48.508;9.052;2022-11-30T04:28:42;8.50;26.30
516;DHT22;244;48.508;9.052;2022-11-30T04:31:10;8.50;26.30
516;DHT22;244;48.508;9.052;2022-11-30T04:33:37;8.60;26.50
516;DHT22;244;48.508;9.052;2022-11-30T04:36:05;8.50;26.50
516;DHT22;244;48.508;9.052;2022-11-30T04:38:33;8.60;26.40
516;DHT22;244;48.508;9.052;2022-11-30T04:41:06;8.60;26.30
516;DHT22;244;48.508;9.052;2022-11-30T04:43:35;8.60;26.20
516;DHT22;244;48.508;9.052;2022-11-30T04:46:02;8.60;26.20
516;DHT22;244;48.508;9.052;2022-11-30T04:48:29;8.60;26.20
516;DHT22;244;48.508;9.052;2022-11-30T04:50:59;8.60;26.10
516;DHT22;244;48.508;9.052;2022-11-30T04:53:27;8.60;26.20
516;DHT22;244;48.508;9.052;2022-11-30T04:55:54;8.60;26.20
516;DHT22;244;48.508;9.052;2022-11-30T04:58:20;8.60;26.80
516;DHT22;244;48.508;9.052;2022-11-30T05:00:49;8.60;26.20
516;DHT22;244;48.508;9.052;2022-11-30T05:03:16;8.60;26.40
516;DHT22;244;48.508;9.052;2022-11-30T05:05:43;8.60;26.30
516;DHT22;244;48.508;9.052;2022-11-30T05:08:09;8.60;26.20
516;DHT22;244;48.508;9.052;2022-11-30T05:10:37;8.70;26.20
516;DHT22;244;48.508;9.052;2022-11-30T05:13:03;8.60;26.20
516;DHT22;244;48.508;9.052;2022-11-30T05:15:31;8.60;26.30
516;DHT22;244;48.508;9.052;2022-11-30T05:18:00;8.70;26.50
516;DHT22;244;48.508;9.052;2022-11-30T05:20:28;8.70;26.40
516;DHT22;244;48.508;9.052;2022-11-30T05:22:55;8.70;26.30
516;DHT22;244;48.508;9.052;2022-11-30T05:25:24;8.70;26.20
516;DHT22;244;48.508;9.052;2022-11-30T05:27:51;8.70;26.10
516;DHT22;244;48.508;9.052;2022-11-30T05:30:18;8.70;26.10
516;DHT22;244;48.508;9.052;2022-11-30T05:32:54;8.80;26.70
516;DHT22;244;48.508;9.052;2022-11-30T05:35:23;8.80;26.10
516;DHT22;244;48.508;9.052;2022-11-30T05:37:50;8.80;26.00
516;DHT22;244;48.508;9.052;2022-11-30T05:40:17;8.80;26.00
516;DHT22;244;48.508;9.052;2022-11-30T05:42:44;8.80;26.00
516;DHT22;244;48.508;9.052;2022-11-30T05:45:10;8.80;26.00
516;DHT22;244;48.508;9.052;2022-11-30T05:47:37;8.80;25.90
516;DHT22;244;48.508;9.052;2022-11-30T05:50:06;8.80;25.90
516;DHT22;244;48.508;9.052;2022-11-30T05:52:34;8.80;26.00
516;DHT22;244;48.508;9.052;2022-11-30T05:55:01;8.70;25.90
516;DHT22;244;48.508;9.052;2022-11-30T05:57:28;8.80;26.00
516;DHT22;244;48.508;9.052;2022-11-30T05:59:55;8.80;26.00
516;DHT22;244;48.508;9.052;2022-11-30T06:02:22;8.80;26.00
516;DHT22;244;48.508;9.052;2022-11-30T06:04:48;8.80;25.90
516;DHT22;244;48.508;9.052;2022-11-30T06:07:15;8.80;25.90
516;DHT22;244;48.508;9.052;2022-11-30T06:09:44;8.80;26.40
516;DHT22;244;48.508;9.052;2022-11-30T06:12:10;8.80;25.80
516;DHT22;244;48.508;9.052;2022-11-30T06:14:37;8.80;25.80
516;DHT22;244;48.508;9.052;2022-11-30T06:17:04;8.80;25.80
516;DHT22;244;48.508;9.052;2022-11-30T06:19:31;8.80;25.80
516;DHT22;244;48.508;9.052;2022-11-30T06:21:58;8.70;25.90
516;DHT22;244;48.508;9.052;2022-11-30T06:24:25;8.70;25.90
516;DHT22;244;48.508;9.052;2022-11-30T06:26:56;8.70;25.90
516;DHT22;244;48.508;9.052;2022-11-30T06:29:23;8.70;26.00
516;DHT22;244;48.508;9.052;2022-11-30T06:31:50;8.80;26.00
516;DHT22;244;48.508;9.052;2022-11-30T06:34:26;8.80;26.00
516;DHT22;244;48.508;9.052;2022-11-30T06:36:53;8.80;26.00
516;DHT22;244;48.508;9.052;2022-11-30T06:39:20;8.70;25.90
516;DHT22;244;48.508;9.052;2022-11-30T06:41:47;8.80;26.10
516;DHT22;244;48.508;9.052;2022-11-30T06:44:15;8.80;26.10
516;DHT22;244;48.508;9.052;2022-11-30T06:46:42;8.80;26.00
516;DHT22;244;48.508;9.052;2022-11-30T06:49:12;8.80;26.00
516;DHT22;244;48.508;9.052;2022-11-30T06:51:39;8.80;25.90
516;DHT22;244;48.508;9.052;2022-11-30T06:54:07;8.80;26.00
516;DHT22;244;48.508;9.052;2022-11-30T06:56:34;8.80;26.00
516;DHT22;244;48.508;9.052;2022-11-30T06:59:01;8.80;26.00
516;DHT22;244;48.508;9.052;2022-11-30T07:01:29;8.80;26.00
516;DHT22;244;48.508;9.052;2022-11-30T07:03:56;8.90;26.10
516;DHT22;244;48.508;9.052;2022-11-30T07:06:23;8.90;26.00
516;DHT22;244;48.508;9.052;2022-11-30T07:08:50;8.80;25.90
516;DHT22;244;48.508;9.052;2022-11-30T07:11:17;8.90;25.90
516;DHT22;244;48.508;9.052;2022-11-30T07:13:44;8.90;25.80
516;DHT22;244;48.508;9.052;2022-11-30T07:16:11;8.90;25.80
516;DHT22;244;48.508;9.052;2022-11-30T07:18:39;8.90;26.40
516;DHT22;244;48.508;9.052;2022-11-30T07:21:06;9.00;25.80
516;DHT22;244;48.508;9.052;2022-11-30T07:23:34;9.00;25.80
516;DHT22;244;48.508;9.052;2022-11-30T07:26:21;9.00;25.70
516;DHT22;244;48.508;9.052;2022-11-30T07:28:50;9.00;25.70
516;DHT22;244;48.508;9.052;2022-11-30T07:31:20;9.00;26.30
516;DHT22;244;48.508;9.052;2022-11-30T07:33:57;9.10;26.30
516;DHT22;244;48.508;9.052;2022-11-30T07:36:27;9.10;25.70
516;DHT22;244;48.508;9.052;2022-11-30T07:38:56;9.20;25.70
516;DHT22;244;48.508;9.052;2022-11-30T07:41:23;9.20;25.70
516;DHT22;244;48.508;9.052;2022-11-30T07:43:50;9.20;25.60
516;DHT22;244;48.508;9.052;2022-11-30T07:46:17;9.30;25.70
516;DHT22;244;48.508;9.052;2022-11-30T07:48:44;9.40;25.60
516;DHT22;244;48.508;9.052;2022-11-30T07:51:14;9.50;25.60
516;DHT22;244;48.508;9.052;2022-11-30T07:53:44;9.40;25.40
516;DHT22;244;48.508;9.052;2022-11-30T07:56:14;9.50;25.30
516;DHT22;244;48.508;9.052;2022-11-30T07:58:42;9.40;25.30
516;DHT22;244;48.508;9.052;2022-11-30T08:01:10;9.40;25.30
516;DHT22;244;48.508;9.052;2022-11-30T08:03:37;9.40;25.40
516;DHT22;244;48.508;9.052;2022-11-30T08:06:06;9.40;25.40
516;DHT22;244;48.508;9.052;2022-11-30T08:08:36;9.40;26.00
516;DHT22;244;48.508;9.052;2022-11-30T08:11:04;9.40;25.30
516;DHT22;244;48.508;9.052;2022-11-30T08:13:31;9.40;25.40
516;DHT22;244;48.508;9.052;2022-11-30T08:16:00;9.40;25.30
516;DHT22;244;48.508;9.052;2022-11-30T08:18:27;9.40;25.20
516;DHT22;244;48.508;9.052;2022-11-30T08:20:58;9.40;25.20
516;DHT22;244;48.508;9.052;2022-11-30T08:23:27;9.50;25.10
516;DHT22;244;48.508;9.052;2022-11-30T08:25:57;9.50;25.10
516;DHT22;244;48.508;9.052;2022-11-30T08:28:28;9.50;25.00
516;DHT22;244;48.508;9.052;2022-11-30T08:30:58;9.50;24.90
516;DHT22;244;48.508;9.052;2022-11-30T08:33:25;9.50;24.80
516;DHT22;244;48.508;9.052;2022-11-30T08:35:52;9.50;25.50
516;DHT22;244;48.508;9.052;2022-11-30T08:38:19;9.50;24.90
516;DHT22;244;48.508;9.052;2022-11-30T08:40:46;9.60;25.00
516;DHT22;244;48.508;9.052;2022-11-30T08:43:15;9.60;25.00
516;DHT22;244;48.508;9.052;2022-11-30T08:45:42;9.70;24.80
516;DHT22;244;48.508;9.052;2022-11-30T08:48:09;9.70;24.60
516;DHT22;244;48.508;9.052;2022-11-30T08:50:36;9.70;24.60
516;DHT22;244;48.508;9.052;2022-11-30T08:53:02;9.70;25.10
516;DHT22;244;48.508;9.052;2022-11-30T08:55:29;9.70;24.30
516;DHT22;244;48.508;9.052;2022-11-30T08:57:57;9.70;24.10
516;DHT22;244;48.508;9.052;2022-11-30T09:00:25;9.80;24.10
516;DHT22;244;48.508;9.052;2022-11-30T09:02:52;9.80;24.10
516;DHT22;244;48.508;9.052;2022-11-30T09:05:19;9.80;24.80
516;DHT22;244;48.508;9.052;2022-11-30T09:07:46;9.90;24.20
516;DHT22;244;48.508;9.052;2022-11-30T09:10:13;9.90;24.20
516;DHT22;244;48.508;9.052;2022-11-30T09:12:41;10.00;23.50
516;DHT22;244;48.508;9.052;2022-11-30T09:15:09;10.00;23.50
516;DHT22;244;48.508;9.052;2022-11-30T09:17:37;10.00;23.50
516;DHT22;244;48.508;9.052;2022-11-30T09:20:05;10.10;23.60
516;DHT22;244;48.508;9.052;2022-11-30T09:22:32;10.20;23.70
516;DHT22;244;48.508;9.052;2022-11-30T09:24:59;10.20;23.50
516;DHT22;244;48.508;9.052;2022-11-30T09:27:26;10.30;23.30
516;DHT22;244;48.508;9.052;2022-11-30T09:29:55;10.40;23.80
516;DHT22;244;48.508;9.052;2022-11-30T09:32:21;10.40;22.90
516;DHT22;244;48.508;9.052;2022-11-30T09:34:50;10.40;22.70
516;DHT22;244;48.508;9.052;2022-11-30T09:37:17;10.40;22.70
516;DHT22;244;48.508;9.052;2022-11-30T09:39:44;10.30;22.80
516;DHT22;244;48.508;9.052;2022-11-30T09:42:37;10.40;22.80
516;DHT22;244;48.508;9.052;2022-11-30T09:45:12;10.40;22.70
516;DHT22;244;48.508;9.052;2022-11-30T09:48:16;10.50;22.50
516;DHT22;244;48.508;9.052;2022-11-30T09:50:46;10.60;22.50
516;DHT22;244;48.508;9.052;2022-11-30T09:53:19;10.70;22.50
516;DHT22;244;48.508;9.052;2022-11-30T09:55:47;10.80;22.50
516;DHT22;244;48.508;9.052;2022-11-30T09:58:22;10.80;22.20
516;DHT22;244;48.508;9.052;2022-11-30T10:00:51;10.80;22.10
516;DHT22;244;48.508;9.052;2022-11-30T10:03:18;10.90;22.00
516;DHT22;244;48.508;9.052;2022-11-30T10:05:53;10.90;21.70
516;DHT22;244;48.508;9.052;2022-11-30T10:08:34;10.90;21.50
516;DHT22;244;48.508;9.052;2022-11-30T10:11:16;10.90;21.40
516;DHT22;244;48.508;9.052;2022-11-30T10:13:56;10.90;21.20
516;DHT22;244;48.508;9.052;2022-11-30T10:16:32;10.80;21.20
516;DHT22;244;48.508;9.052;2022-11-30T10:19:08;10.90;21.10
516;DHT22;244;48.508;9.052;2022-11-30T10:21:50;10.90;20.90
516;DHT22;244;48.508;9.052;2022-11-30T10:24:36;10.80;20.60
516;DHT22;244;48.508;9.052;2022-11-30T10:27:16;10.80;20.80
516;DHT22;244;48.508;9.052;2022-11-30T10:29:44;10.90;20.90
516;DHT22;244;48.508;9.052;2022-11-30T10:32:14;11.00;20.70
516;DHT22;244;48.508;9.052;2022-11-30T10:34:46;11.00;20.40
516;DHT22;244;48.508;9.052;2022-11-30T10:37:17;11.10;20.40
516;DHT22;244;48.508;9.052;2022-11-30T10:39:51;11.10;20.10
516;DHT22;244;48.508;9.052;2022-11-30T10:42:25;11.20;20.00
516;DHT22;244;48.508;9.052;2022-11-30T10:44:59;11.10;19.40
516;DHT22;244;48.508;9.052;2022-11-30T10:47:30;11.10;19.70
516;DHT22;244;48.508;9.052;2022-11-30T10:49:59;11.10;19.70
516;DHT22;244;48.508;9.052;2022-11-30T10:52:29;11.20;19.80
516;DHT22;244;48.508;9.052;2022-11-30T10:54:57;11.40;19.90
516;DHT22;244;48.508;9.052;2022-11-30T10:57:28;11.50;19.60
516;DHT22;244;48.508;9.052;2022-11-30T10:59:57;11.60;19.00
516;DHT22;244;48.508;9.052;2022-11-30T11:02:38;11.70;18.90
516;DHT22;244;48.508;9.052;2022-11-30T11:05:14;11.80;18.70
516;DHT22;244;48.508;9.052;2022-11-30T11:07:48;11.90;18.70
516;DHT22;244;48.508;9.052;2022-11-30T11:10:17;11.90;18.60
516;DHT22;244;48.508;9.052;2022-11-30T11:12:47;11.90;18.70
516;DHT22;244;48.508;9.052;2022-11-30T11:15:18;11.80;18.30
516;DHT22;244;48.508;9.052;2022-11-30T11:17:46;11.60;17.70
516;DHT22;244;48.508;9.052;2022-11-30T11:20:29;11.50;17.30
516;DHT22;244;48.508;9.052;2022-11-30T11:22:57;11.40;17.30
516;DHT22;244;48.508;9.052;2022-11-30T11:25:30;11.30;17.40
516;DHT22;244;48.508;9.052;2022-11-30T11:28:04;11.30;17.60
516;DHT22;244;48.508;9.052;2022-11-30T11:30:35;11.30;17.80
516;DHT22;244;48.508;9.052;2022-11-30T11:33:06;11.30;17.80
516;DHT22;244;48.508;9.052;2022-11-30T11:35:44;11.30;17.90
516;DHT22;244;48.508;9.052;2022-11-30T11:38:25;11.30;17.80
516;DHT22;244;48.508;9.052;2022-11-30T11:40:57;11.30;17.60
516;DHT22;244;48.508;9.052;2022-11-30T11:43:27;11.20;17.30
516;DHT22;244;48.508;9.052;2022-11-30T11:45:57;11.20;17.40
516;DHT22;244;48.508;9.052;2022-11-30T11:48:34;11.10;17.10
516;DHT22;244;48.508;9.052;2022-11-30T11:51:04;11.10;17.10
516;DHT22;244;48.508;9.052;2022-11-30T11:53:42;11.00;17.10
516;DHT22;244;48.508;9.052;2022-11-30T11:56:14;10.90;17.80
516;DHT22;244;48.508;9.052;2022-11-30T11:58:46;10.90;17.20
516;DHT22;244;48.508;9.052;2022-11-30T12:01:20;10.90;17.20
516;DHT22;244;48.508;9.052;2022-11-30T12:03:59;10.90;17.20
516;DHT22;244;48.508;9.052;2022-11-30T12:06:30;10.90;17.10
516;DHT22;244;48.508;9.052;2022-11-30T12:09:04;10.90;17.50
516;DHT22;244;48.508;9.052;2022-11-30T12:11:43;10.90;17.00
516;DHT22;244;48.508;9.052;2022-11-30T12:14:12;10.90;16.90
516;DHT22;244;48.508;9.052;2022-11-30T12:16:54;10.90;16.80
516;DHT22;244;48.508;9.052;2022-11-30T12:19:30;10.90;16.80
516;DHT22;244;48.508;9.052;2022-11-30T12:22:04;10.90;16.90
516;DHT22;244;48.508;9.052;2022-11-30T12:24:59;10.80;16.90
516;DHT22;244;48.508;9.052;2022-11-30T12:27:35;10.80;17.00
516;DHT22;244;48.508;9.052;2022-11-30T12:30:10;10.70;16.80
516;DHT22;244;48.508;9.052;2022-11-30T12:33:02;10.70;17.00
516;DHT22;244;48.508;9.052;2022-11-30T12:35:38;10.80;17.00
516;DHT22;244;48.508;9.052;2022-11-30T12:38:16;10.80;16.90
516;DHT22;244;48.508;9.052;2022-11-30T12:40:55;10.80;17.30
516;DHT22;244;48.508;9.052;2022-11-30T12:43:35;10.80;16.80
516;DHT22;244;48.508;9.052;2022-11-30T12:46:09;10.80;16.90
516;DHT22;244;48.508;9.052;2022-11-30T12:48:45;10.80;16.90
516;DHT22;244;48.508;9.052;2022-11-30T12:51:21;10.70;17.00
516;DHT22;244;48.508;9.052;2022-11-30T12:53:57;10.70;17.00
516;DHT22;244;48.508;9.052;2022-11-30T12:56:33;10.70;17.10
516;DHT22;244;48.508;9.052;2022-11-30T12:59:13;10.60;17.10
516;DHT22;244;48.508;9.052;2022-11-30T13:01:51;10.60;17.00
516;DHT22;244;48.508;9.052;2022-11-30T13:04:24;10.60;17.60
516;DHT22;244;48.508;9.052;2022-11-30T13:06:57;10.50;16.90
516;DHT22;244;48.508;9.052;2022-11-30T13:09:28;10.50;17.00
516;DHT22;244;48.508;9.052;2022-11-30T13:12:02;10.50;17.10
516;DHT22;244;48.508;9.052;2022-11-30T13:14:32;10.40;17.20
516;DHT22;244;48.508;9.052;2022-11-30T13:17:01;10.40;17.20
516;DHT22;244;48.508;9.052;2022-11-30T13:19:47;10.40;17.20
516;DHT22;244;48.508;9.052;2022-11-30T13:22:21;10.40;17.30
516;DHT22;244;48.508;9.052;2022-11-30T13:24:55;10.30;17.30
516;DHT22;244;48.508;9.052;2022-11-30T13:27:30;10.30;17.30
516;DHT22;244;48.508;9.052;2022-11-30T13:30:18;10.30;17.30
516;DHT22;244;48.508;9.052;2022-11-30T13:32:46;10.20;17.30
516;DHT22;244;48.508;9.052;2022-11-30T13:35:40;10.20;17.40
516;DHT22;244;48.508;9.052;2022-11-30T13:38:15;10.20;17.50
516;DHT22;244;48.508;9.052;2022-11-30T13:40:55;10.10;17.50
516;DHT22;244;48.508;9.052;2022-11-30T13:43:25;10.10;17.50
516;DHT22;244;48.508;9.052;2022-11-30T13:46:03;10.10;17.50
516;DHT22;244;48.508;9.052;2022-11-30T13:48:32;10.00;17.50
516;DHT22;244;48.508;9.052;2022-11-30T13:50:59;10.00;17.50
516;DHT22;244;48.508;9.052;2022-11-30T13:53:27;9.90;19.00
516;DHT22;244;48.508;9.052;2022-11-30T13:56:06;9.90;18.40
516;DHT22;244;48.508;9.052;2022-11-30T14:05:33;9.80;18.40
516;DHT22;244;48.508;9.052;2022-11-30T14:08:16;9.70;18.30
516;DHT22;244;48.508;9.052;2022-11-30T14:10:43;9.70;18.40
516;DHT22;244;48.508;9.052;2022-11-30T14:13:26;9.70;18.40
516;DHT22;244;48.508;9.052;2022-11-30T14:15:56;9.60;18.40
516;DHT22;244;48.508;9.052;2022-11-30T14:18:40;9.60;18.40
516;DHT22;244;48.508;9.052;2022-11-30T14:21:21;9.60;18.50
516;DHT22;244;48.508;9.052;2022-11-30T14:23:54;9.60;18.50
516;DHT22;244;48.508;9.052;2022-11-30T14:26:26;9.50;18.60
516;DHT22;244;48.508;9.052;2022-11-30T14:29:00;9.50;18.60
516;DHT22;244;48.508;9.052;2022-11-30T14:31:30;9.50;18.60
516;DHT22;244;48.508;9.052;2022-11-30T14:34:03;9.50;18.60
516;DHT22;244;48.508;9.052;2022-11-30T14:36:37;9.40;18.60
516;DHT22;244;48.508;9.052;2022-11-30T14:39:23;9.40;18.70
516;DHT22;244;48.508;9.052;2022-11-30T14:41:50;9.40;18.70
516;DHT22;244;48.508;9.052;2022-11-30T14:44:17;9.40;18.80
516;DHT22;244;48.508;9.052;2022-11-30T14:46:44;9.40;18.80
516;DHT22;244;48.508;9.052;2022-11-30T14:49:13;9.40;18.90
516;DHT22;244;48.508;9.052;2022-11-30T14:51:45;9.40;18.90
516;DHT22;244;48.508;9.052;2022-11-30T14:54:29;9.40;18.90
516;DHT22;244;48.508;9.052;2022-11-30T14:57:04;9.30;18.90
516;DHT22;244;48.508;9.052;2022-11-30T14:59:45;9.30;19.00
516;DHT22;244;48.508;9.052;2022-11-30T15:02:19;9.20;19.20
516;DHT22;244;48.508;9.052;2022-11-30T15:04:49;9.20;19.30
516;DHT22;244;48.508;9.052;2022-11-30T15:07:18;9.10;19.30
516;DHT22;244;48.508;9.052;2022-11-30T15:09:47;9.10;19.40
516;DHT22;244;48.508;9.052;2022-11-30T15:12:18;9.10;19.40
516;DHT22;244;48.508;9.052;2022-11-30T15:17:48;9.10;19.40
516;DHT22;244;48.508;9.052;2022-11-30T15:20:18;9.10;19.40
516;DHT22;244;48.508;9.052;2022-11-30T15:22:47;9.00;19.30
516;DHT22;244;48.508;9.052;2022-11-30T15:25:14;9.10;19.40
516;DHT22;244;48.508;9.052;2022-11-30T15:27:41;9.00;20.10
516;DHT22;244;48.508;9.052;2022-11-30T15:30:13;9.00;19.50
516;DHT22;244;48.508;9.052;2022-11-30T15:32:43;9.00;19.60
516;DHT22;244;48.508;9.052;2022-11-30T15:35:16;9.00;19.70
516;DHT22;244;48.508;9.052;2022-11-30T15:37:44;8.90;19.70
516;DHT22;244;48.508;9.052;2022-11-30T15:40:16;8.90;19.80
516;DHT22;244;48.508;9.052;2022-11-30T15:42:48;8.90;19.80
516;DHT22;244;48.508;9.052;2022-11-30T15:45:20;8.90;19.90
516;DHT22;244;48.508;9.052;2022-11-30T15:47:47;8.80;19.90
516;DHT22;244;48.508;9.052;2022-11-30T15:50:32;8.80;20.00
516;DHT22;244;48.508;9.052;2022-11-30T15:53:02;8.80;20.00
516;DHT22;244;48.508;9.052;2022-11-30T15:55:41;8.80;20.10
516;DHT22;244;48.508;9.052;2022-11-30T15:58:27;8.80;20.10
516;DHT22;244;48.508;9.052;2022-11-30T16:01:03;8.70;20.10
516;DHT22;244;48.508;9.052;2022-11-30T16:03:31;8.70;20.10
516;DHT22;244;48.508;9.052;2022-11-30T16:06:00;8.70;20.10
516;DHT22;244;48.508;9.052;2022-11-30T16:08:29;8.70;20.20
516;DHT22;244;48.508;9.052;2022-11-30T16:10:58;8.70;20.20
516;DHT22;244;48.508;9.052;2022-11-30T16:13:28;8.70;20.20
516;DHT22;244;48.508;9.052;2022-11-30T16:15:56;8.70;20.20
516;DHT22;244;48.508;9.052;2022-11-30T16:18:26;8.70;20.30
516;DHT22;244;48.508;9.052;2022-11-30T16:20:54;8.70;20.40
516;DHT22;244;48.508;9.052;2022-11-30T16:23:22;8.70;20.40
516;DHT22;244;48.508;9.052;2022-11-30T16:25:49;8.70;20.90
516;DHT22;244;48.508;9.052;2022-11-30T16:28:18;8.70;20.20
516;DHT22;244;48.508;9.052;2022-11-30T16:30:46;8.70;20.20
516;DHT22;244;48.508;9.052;2022-11-30T16:33:14;8.70;20.20
516;DHT22;244;48.508;9.052;2022-11-30T16:35:46;8.70;20.20
516;DHT22;244;48.508;9.052;2022-11-30T16:38:14;8.70;20.20
516;DHT22;244;48.508;9.052;2022-11-30T16:40:41;8.70;20.70
516;DHT22;244;48.508;9.052;2022-11-30T16:43:09;8.70;20.00
516;DHT22;244;48.508;9.052;2022-11-30T16:45:39;8.70;20.10
516;DHT22;244;48.508;9.052;2022-11-30T16:48:08;8.70;20.00
516;DHT22;244;48.508;9.052;2022-11-30T16:50:35;8.70;20.00
516;DHT22;244;48.508;9.052;2022-11-30T16:53:04;8.70;20.00
516;DHT22;244;48.508;9.052;2022-11-30T16:55:33;8.70;20.00
516;DHT22;244;48.508;9.052;2022-11-30T16:58:02;8.70;20.10
516;DHT22;244;48.508;9.052;2022-11-30T17:00:29;8.70;20.10
516;DHT22;244;48.508;9.052;2022-11-30T17:03:01;8.70;20.10
516;DHT22;244;48.508;9.052;2022-11-30T17:05:30;8.70;20.00
516;DHT22;244;48.508;9.052;2022-11-30T17:07:58;8.70;20.70
516;DHT22;244;48.508;9.052;2022-11-30T17:10:25;8.70;20.00
516;DHT22;244;48.508;9.052;2022-11-30T17:12:52;8.70;20.10
516;DHT22;244;48.508;9.052;2022-11-30T17:15:20;8.70;20.10
516;DHT22;244;48.508;9.052;2022-11-30T17:17:48;8.70;20.10